Portada
METAR-TAF:

METAR-TAF

Aeroports :

Minocqua-Woodruff, Wisconsin, Estats Units d'Amèrica

latitud: 45-56N, longitud: 089-44W, altitud: 496 m

Observació

L'informe es va fer fa 15 hores i 35 minuts, a les 15:15 UTC
Vent calma
Temperatura -5°C
Humitat 93%
Pressió 1007 hPa
Visibilitat: 8.0 km
Cel cobert a una alçada de 400 ft
boirina

METAR: KARV 201515Z AUTO 00000KT 5SM BR OVC004 M05/M06 A2973 RMK AO2 T10521061

Hora: 00:50 (06:50 UTC)


TAF: manca

Observacions i pronòstics meteorològics de més de 4000 aeroports (METAR i TAF).

Les estacions disponibles són els punts grocs i vermells al mapa.

Posi el ratolí al punt desitjat per veure el nom de l'estació.

Feu clic per veure les observacions i els pronòstics meteorològics.

Per canviar el mapa: feu clic els botons verds amb una creu de color negre per apropar; al botó verd amb un guió per allunyar la imatge; o en les fletxes verdes per a mapes adjacents.


METAR-TAF: